sensor_id;sensor_type;location;lat;lon;timestamp;temperature;humidity
14119;DHT22;7138;49.246;9.100;2023-04-12T00:00:25;7.70;99.90
14119;DHT22;7138;49.246;9.100;2023-04-12T00:02:52;7.60;99.90
14119;DHT22;7138;49.246;9.100;2023-04-12T00:05:19;7.70;99.90
14119;DHT22;7138;49.246;9.100;2023-04-12T00:07:47;7.60;99.90
14119;DHT22;7138;49.246;9.100;2023-04-12T00:10:13;7.70;99.90
14119;DHT22;7138;49.246;9.100;2023-04-12T00:12:39;7.80;99.90
14119;DHT22;7138;49.246;9.100;2023-04-12T00:15:06;7.80;99.90
14119;DHT22;7138;49.246;9.100;2023-04-12T00:17:33;7.90;99.90
14119;DHT22;7138;49.246;9.100;2023-04-12T00:20:01;8.00;99.90
14119;DHT22;7138;49.246;9.100;2023-04-12T00:22:30;8.10;99.90
14119;DHT22;7138;49.246;9.100;2023-04-12T00:24:56;8.00;99.90
14119;DHT22;7138;49.246;9.100;2023-04-12T00:27:22;8.00;99.90
14119;DHT22;7138;49.246;9.100;2023-04-12T00:29:48;8.00;99.90
14119;DHT22;7138;49.246;9.100;2023-04-12T00:32:14;8.00;99.90
14119;DHT22;7138;49.246;9.100;2023-04-12T00:34:40;8.00;99.90
14119;DHT22;7138;49.246;9.100;2023-04-12T00:37:07;8.00;99.90
14119;DHT22;7138;49.246;9.100;2023-04-12T00:39:33;8.00;99.90
14119;DHT22;7138;49.246;9.100;2023-04-12T00:42:02;7.90;99.90
14119;DHT22;7138;49.246;9.100;2023-04-12T00:44:29;7.90;99.90
14119;DHT22;7138;49.246;9.100;2023-04-12T00:46:56;7.80;99.90
14119;DHT22;7138;49.246;9.100;2023-04-12T00:49:22;7.70;99.90
14119;DHT22;7138;49.246;9.100;2023-04-12T00:51:48;7.80;99.90
14119;DHT22;7138;49.246;9.100;2023-04-12T00:54:17;7.80;99.90
14119;DHT22;7138;49.246;9.100;2023-04-12T00:56:45;7.70;99.90
14119;DHT22;7138;49.246;9.100;2023-04-12T00:59:11;7.70;99.90
14119;DHT22;7138;49.246;9.100;2023-04-12T01:01:37;7.70;99.90
14119;DHT22;7138;49.246;9.100;2023-04-12T01:04:05;7.70;99.90
14119;DHT22;7138;49.246;9.100;2023-04-12T01:06:40;7.60;99.90
14119;DHT22;7138;49.246;9.100;2023-04-12T01:09:25;7.60;99.90
14119;DHT22;7138;49.246;9.100;2023-04-12T01:12:03;7.60;99.90
14119;DHT22;7138;49.246;9.100;2023-04-12T01:14:42;7.50;99.90
14119;DHT22;7138;49.246;9.100;2023-04-12T01:17:18;7.50;99.90
14119;DHT22;7138;49.246;9.100;2023-04-12T01:19:55;7.50;99.90
14119;DHT22;7138;49.246;9.100;2023-04-12T01:22:36;7.40;99.90
14119;DHT22;7138;49.246;9.100;2023-04-12T01:25:36;7.40;99.90
14119;DHT22;7138;49.246;9.100;2023-04-12T01:28:09;7.40;99.90
14119;DHT22;7138;49.246;9.100;2023-04-12T01:30:39;7.40;99.90
14119;DHT22;7138;49.246;9.100;2023-04-12T01:33:10;7.30;99.90
14119;DHT22;7138;49.246;9.100;2023-04-12T01:35:37;7.30;99.90
14119;DHT22;7138;49.246;9.100;2023-04-12T01:38:05;7.30;99.90
14119;DHT22;7138;49.246;9.100;2023-04-12T01:40:31;7.30;99.90
14119;DHT22;7138;49.246;9.100;2023-04-12T01:43:05;7.30;99.90
14119;DHT22;7138;49.246;9.100;2023-04-12T01:45:32;7.30;99.90
14119;DHT22;7138;49.246;9.100;2023-04-12T01:47:58;7.30;99.90
14119;DHT22;7138;49.246;9.100;2023-04-12T01:50:32;7.20;99.90
14119;DHT22;7138;49.246;9.100;2023-04-12T01:53:10;7.20;99.90
14119;DHT22;7138;49.246;9.100;2023-04-12T01:55:40;7.20;99.90
14119;DHT22;7138;49.246;9.100;2023-04-12T01:58:11;7.20;99.90
14119;DHT22;7138;49.246;9.100;2023-04-12T02:00:42;7.20;99.90
14119;DHT22;7138;49.246;9.100;2023-04-12T02:03:09;7.20;99.90
14119;DHT22;7138;49.246;9.100;2023-04-12T02:05:37;7.20;99.90
14119;DHT22;7138;49.246;9.100;2023-04-12T02:08:04;7.10;99.90
14119;DHT22;7138;49.246;9.100;2023-04-12T02:10:31;7.20;99.90
14119;DHT22;7138;49.246;9.100;2023-04-12T02:12:58;7.10;99.90
14119;DHT22;7138;49.246;9.100;2023-04-12T02:15:26;7.00;99.90
14119;DHT22;7138;49.246;9.100;2023-04-12T02:17:53;7.00;99.90
14119;DHT22;7138;49.246;9.100;2023-04-12T02:20:19;7.00;99.90
14119;DHT22;7138;49.246;9.100;2023-04-12T02:22:45;6.90;99.90
14119;DHT22;7138;49.246;9.100;2023-04-12T02:25:11;6.90;99.90
14119;DHT22;7138;49.246;9.100;2023-04-12T02:27:37;6.90;99.90
14119;DHT22;7138;49.246;9.100;2023-04-12T02:30:04;6.90;99.90
14119;DHT22;7138;49.246;9.100;2023-04-12T02:32:33;6.90;99.90
14119;DHT22;7138;49.246;9.100;2023-04-12T02:35:08;6.90;99.90
14119;DHT22;7138;49.246;9.100;2023-04-12T02:37:34;6.90;99.90
14119;DHT22;7138;49.246;9.100;2023-04-12T02:40:01;6.90;99.90
14119;DHT22;7138;49.246;9.100;2023-04-12T02:42:29;6.80;99.90
14119;DHT22;7138;49.246;9.100;2023-04-12T02:44:55;6.80;99.90
14119;DHT22;7138;49.246;9.100;2023-04-12T02:47:20;6.80;99.90
14119;DHT22;7138;49.246;9.100;2023-04-12T02:49:48;6.90;99.90
14119;DHT22;7138;49.246;9.100;2023-04-12T02:52:13;6.80;99.90
14119;DHT22;7138;49.246;9.100;2023-04-12T02:54:39;6.80;99.90
14119;DHT22;7138;49.246;9.100;2023-04-12T02:57:05;6.90;99.90
14119;DHT22;7138;49.246;9.100;2023-04-12T02:59:32;6.90;99.90
14119;DHT22;7138;49.246;9.100;2023-04-12T03:01:58;6.90;99.90
14119;DHT22;7138;49.246;9.100;2023-04-12T03:04:24;6.80;99.90
14119;DHT22;7138;49.246;9.100;2023-04-12T03:06:55;6.80;99.90
14119;DHT22;7138;49.246;9.100;2023-04-12T03:09:21;6.80;99.90
14119;DHT22;7138;49.246;9.100;2023-04-12T03:11:48;6.80;99.90
14119;DHT22;7138;49.246;9.100;2023-04-12T03:14:14;6.80;99.90
14119;DHT22;7138;49.246;9.100;2023-04-12T03:16:40;6.80;99.90
14119;DHT22;7138;49.246;9.100;2023-04-12T03:19:05;6.80;99.90
14119;DHT22;7138;49.246;9.100;2023-04-12T03:21:31;6.80;99.90
14119;DHT22;7138;49.246;9.100;2023-04-12T03:24:02;6.80;99.90
14119;DHT22;7138;49.246;9.100;2023-04-12T03:26:28;6.80;99.90
14119;DHT22;7138;49.246;9.100;2023-04-12T03:28:59;6.80;99.90
14119;DHT22;7138;49.246;9.100;2023-04-12T03:31:25;6.80;99.90
14119;DHT22;7138;49.246;9.100;2023-04-12T03:33:51;6.80;99.90
14119;DHT22;7138;49.246;9.100;2023-04-12T03:36:17;6.80;99.90
14119;DHT22;7138;49.246;9.100;2023-04-12T03:38:45;6.80;99.90
14119;DHT22;7138;49.246;9.100;2023-04-12T03:41:12;6.80;99.90
14119;DHT22;7138;49.246;9.100;2023-04-12T03:43:38;6.80;99.90
14119;DHT22;7138;49.246;9.100;2023-04-12T03:46:05;6.90;99.90
14119;DHT22;7138;49.246;9.100;2023-04-12T03:48:31;6.80;99.90
14119;DHT22;7138;49.246;9.100;2023-04-12T03:50:57;6.80;99.90
14119;DHT22;7138;49.246;9.100;2023-04-12T03:53:24;6.90;99.90
14119;DHT22;7138;49.246;9.100;2023-04-12T03:55:51;6.90;99.90
14119;DHT22;7138;49.246;9.100;2023-04-12T03:58:20;6.90;99.90
14119;DHT22;7138;49.246;9.100;2023-04-12T04:00:46;6.90;99.90
14119;DHT22;7138;49.246;9.100;2023-04-12T04:03:13;6.90;99.90
14119;DHT22;7138;49.246;9.100;2023-04-12T04:05:40;6.90;99.90
14119;DHT22;7138;49.246;9.100;2023-04-12T04:08:05;6.90;99.90
14119;DHT22;7138;49.246;9.100;2023-04-12T04:10:33;6.90;99.90
14119;DHT22;7138;49.246;9.100;2023-04-12T04:12:59;6.90;99.90
14119;DHT22;7138;49.246;9.100;2023-04-12T04:15:26;6.90;99.90
14119;DHT22;7138;49.246;9.100;2023-04-12T04:17:52;6.90;99.90
14119;DHT22;7138;49.246;9.100;2023-04-12T04:20:19;6.90;99.90
14119;DHT22;7138;49.246;9.100;2023-04-12T04:22:45;6.90;99.90
14119;DHT22;7138;49.246;9.100;2023-04-12T04:25:13;6.80;99.90
14119;DHT22;7138;49.246;9.100;2023-04-12T04:27:40;6.90;99.90
14119;DHT22;7138;49.246;9.100;2023-04-12T04:30:07;6.80;99.90
14119;DHT22;7138;49.246;9.100;2023-04-12T04:32:36;6.80;99.90
14119;DHT22;7138;49.246;9.100;2023-04-12T04:35:02;6.80;99.90
14119;DHT22;7138;49.246;9.100;2023-04-12T04:37:28;6.80;99.90
14119;DHT22;7138;49.246;9.100;2023-04-12T04:39:56;6.80;99.90
14119;DHT22;7138;49.246;9.100;2023-04-12T04:42:22;6.80;99.90
14119;DHT22;7138;49.246;9.100;2023-04-12T04:44:48;6.80;99.90
14119;DHT22;7138;49.246;9.100;2023-04-12T04:47:26;6.80;99.90
14119;DHT22;7138;49.246;9.100;2023-04-12T04:49:56;6.80;99.90
14119;DHT22;7138;49.246;9.100;2023-04-12T04:52:24;6.80;99.90
14119;DHT22;7138;49.246;9.100;2023-04-12T04:54:50;6.80;99.90
14119;DHT22;7138;49.246;9.100;2023-04-12T04:57:16;6.80;99.90
14119;DHT22;7138;49.246;9.100;2023-04-12T04:59:42;6.80;99.90
14119;DHT22;7138;49.246;9.100;2023-04-12T05:02:08;6.80;99.90
14119;DHT22;7138;49.246;9.100;2023-04-12T05:04:35;6.80;99.90
14119;DHT22;7138;49.246;9.100;2023-04-12T05:07:03;6.80;99.90
14119;DHT22;7138;49.246;9.100;2023-04-12T05:09:28;6.80;99.90
14119;DHT22;7138;49.246;9.100;2023-04-12T05:11:54;6.70;99.90
14119;DHT22;7138;49.246;9.100;2023-04-12T05:14:20;6.80;99.90
14119;DHT22;7138;49.246;9.100;2023-04-12T05:16:46;6.80;99.90
14119;DHT22;7138;49.246;9.100;2023-04-12T05:19:12;6.80;99.90
14119;DHT22;7138;49.246;9.100;2023-04-12T05:21:38;6.80;99.90
14119;DHT22;7138;49.246;9.100;2023-04-12T05:24:05;6.80;99.90
14119;DHT22;7138;49.246;9.100;2023-04-12T05:26:32;6.80;99.90
14119;DHT22;7138;49.246;9.100;2023-04-12T05:28:58;6.80;99.90
14119;DHT22;7138;49.246;9.100;2023-04-12T05:31:26;6.80;99.90
14119;DHT22;7138;49.246;9.100;2023-04-12T05:33:53;6.80;99.90
14119;DHT22;7138;49.246;9.100;2023-04-12T05:36:19;6.80;99.90
14119;DHT22;7138;49.246;9.100;2023-04-12T05:38:45;6.80;99.90
14119;DHT22;7138;49.246;9.100;2023-04-12T05:41:12;6.80;99.90
14119;DHT22;7138;49.246;9.100;2023-04-12T05:43:38;6.90;99.90
14119;DHT22;7138;49.246;9.100;2023-04-12T05:46:04;6.90;99.90
14119;DHT22;7138;49.246;9.100;2023-04-12T05:48:32;6.90;99.90
14119;DHT22;7138;49.246;9.100;2023-04-12T05:50:58;6.80;99.90
14119;DHT22;7138;49.246;9.100;2023-04-12T05:53:23;6.90;99.90
14119;DHT22;7138;49.246;9.100;2023-04-12T05:55:49;6.90;99.90
14119;DHT22;7138;49.246;9.100;2023-04-12T05:58:17;6.90;99.90
14119;DHT22;7138;49.246;9.100;2023-04-12T06:00:43;6.90;99.90
14119;DHT22;7138;49.246;9.100;2023-04-12T06:03:10;6.90;99.90
14119;DHT22;7138;49.246;9.100;2023-04-12T06:05:36;6.90;99.90
14119;DHT22;7138;49.246;9.100;2023-04-12T06:08:03;6.90;99.90
14119;DHT22;7138;49.246;9.100;2023-04-12T06:10:30;7.00;99.90
14119;DHT22;7138;49.246;9.100;2023-04-12T06:12:56;7.00;99.90
14119;DHT22;7138;49.246;9.100;2023-04-12T06:15:23;7.00;99.90
14119;DHT22;7138;49.246;9.100;2023-04-12T06:17:49;7.00;99.90
14119;DHT22;7138;49.246;9.100;2023-04-12T06:20:16;7.00;99.90
14119;DHT22;7138;49.246;9.100;2023-04-12T06:22:42;7.00;99.90
14119;DHT22;7138;49.246;9.100;2023-04-12T06:25:08;7.00;99.90
14119;DHT22;7138;49.246;9.100;2023-04-12T06:27:34;7.00;99.90
14119;DHT22;7138;49.246;9.100;2023-04-12T06:30:00;7.10;99.90
14119;DHT22;7138;49.246;9.100;2023-04-12T06:32:27;7.10;99.90
14119;DHT22;7138;49.246;9.100;2023-04-12T06:34:53;7.10;99.90
14119;DHT22;7138;49.246;9.100;2023-04-12T06:37:19;7.10;99.90
14119;DHT22;7138;49.246;9.100;2023-04-12T06:39:45;7.20;99.90
14119;DHT22;7138;49.246;9.100;2023-04-12T06:42:11;7.20;99.90
14119;DHT22;7138;49.246;9.100;2023-04-12T06:44:37;7.20;99.90
14119;DHT22;7138;49.246;9.100;2023-04-12T06:47:04;7.20;99.90
14119;DHT22;7138;49.246;9.100;2023-04-12T06:49:31;7.20;99.90
14119;DHT22;7138;49.246;9.100;2023-04-12T06:51:57;7.20;99.90
14119;DHT22;7138;49.246;9.100;2023-04-12T06:54:22;7.20;99.90
14119;DHT22;7138;49.246;9.100;2023-04-12T06:56:48;7.30;99.90
14119;DHT22;7138;49.246;9.100;2023-04-12T06:59:15;7.30;99.90
14119;DHT22;7138;49.246;9.100;2023-04-12T07:01:40;7.30;99.90
14119;DHT22;7138;49.246;9.100;2023-04-12T07:04:06;7.30;99.90
14119;DHT22;7138;49.246;9.100;2023-04-12T07:06:33;7.40;99.90
14119;DHT22;7138;49.246;9.100;2023-04-12T07:08:59;7.30;99.90
14119;DHT22;7138;49.246;9.100;2023-04-12T07:11:25;7.40;99.90
14119;DHT22;7138;49.246;9.100;2023-04-12T07:13:52;7.40;99.90
14119;DHT22;7138;49.246;9.100;2023-04-12T07:16:18;7.40;99.90
14119;DHT22;7138;49.246;9.100;2023-04-12T07:18:44;7.40;99.90
14119;DHT22;7138;49.246;9.100;2023-04-12T07:21:10;7.50;99.90
14119;DHT22;7138;49.246;9.100;2023-04-12T07:23:40;7.50;99.90
14119;DHT22;7138;49.246;9.100;2023-04-12T07:26:06;7.50;99.90
14119;DHT22;7138;49.246;9.100;2023-04-12T07:28:31;7.60;99.90
14119;DHT22;7138;49.246;9.100;2023-04-12T07:30:57;7.60;99.90
14119;DHT22;7138;49.246;9.100;2023-04-12T07:33:26;7.60;99.90
14119;DHT22;7138;49.246;9.100;2023-04-12T07:35:51;7.60;99.90
14119;DHT22;7138;49.246;9.100;2023-04-12T07:38:17;7.70;99.90
14119;DHT22;7138;49.246;9.100;2023-04-12T07:40:44;7.80;99.90
14119;DHT22;7138;49.246;9.100;2023-04-12T07:43:10;7.80;99.90
14119;DHT22;7138;49.246;9.100;2023-04-12T07:45:36;7.80;99.90
14119;DHT22;7138;49.246;9.100;2023-04-12T07:48:02;7.90;99.90
14119;DHT22;7138;49.246;9.100;2023-04-12T07:50:28;7.90;99.90
14119;DHT22;7138;49.246;9.100;2023-04-12T07:52:58;7.90;99.90
14119;DHT22;7138;49.246;9.100;2023-04-12T07:55:42;8.00;99.90
14119;DHT22;7138;49.246;9.100;2023-04-12T07:58:10;8.10;99.90
14119;DHT22;7138;49.246;9.100;2023-04-12T08:00:36;8.10;99.90
14119;DHT22;7138;49.246;9.100;2023-04-12T08:03:02;8.10;99.90
14119;DHT22;7138;49.246;9.100;2023-04-12T08:05:28;8.20;99.90
14119;DHT22;7138;49.246;9.100;2023-04-12T08:07:53;8.20;99.90
14119;DHT22;7138;49.246;9.100;2023-04-12T08:10:20;8.20;99.90
14119;DHT22;7138;49.246;9.100;2023-04-12T08:12:47;8.30;99.90
14119;DHT22;7138;49.246;9.100;2023-04-12T08:15:13;8.30;99.90
14119;DHT22;7138;49.246;9.100;2023-04-12T08:17:39;8.40;99.90
14119;DHT22;7138;49.246;9.100;2023-04-12T08:20:08;8.50;99.90
14119;DHT22;7138;49.246;9.100;2023-04-12T08:22:35;8.50;99.90
14119;DHT22;7138;49.246;9.100;2023-04-12T08:25:01;8.50;99.90
14119;DHT22;7138;49.246;9.100;2023-04-12T08:27:28;8.60;99.90
14119;DHT22;7138;49.246;9.100;2023-04-12T08:29:56;8.60;99.90
14119;DHT22;7138;49.246;9.100;2023-04-12T08:32:22;8.70;99.90
14119;DHT22;7138;49.246;9.100;2023-04-12T08:34:48;8.70;99.90
14119;DHT22;7138;49.246;9.100;2023-04-12T08:37:13;8.70;99.90
14119;DHT22;7138;49.246;9.100;2023-04-12T08:39:39;8.70;99.90
14119;DHT22;7138;49.246;9.100;2023-04-12T08:42:06;8.70;99.90
14119;DHT22;7138;49.246;9.100;2023-04-12T08:44:34;8.80;99.90
14119;DHT22;7138;49.246;9.100;2023-04-12T08:47:04;8.90;99.90
14119;DHT22;7138;49.246;9.100;2023-04-12T08:49:32;9.00;99.90
14119;DHT22;7138;49.246;9.100;2023-04-12T08:52:00;9.20;99.90
14119;DHT22;7138;49.246;9.100;2023-04-12T08:54:30;9.20;99.90
14119;DHT22;7138;49.246;9.100;2023-04-12T08:56:58;9.20;99.90
14119;DHT22;7138;49.246;9.100;2023-04-12T08:59:27;9.20;99.90
14119;DHT22;7138;49.246;9.100;2023-04-12T09:01:53;9.30;99.90
14119;DHT22;7138;49.246;9.100;2023-04-12T09:04:22;9.40;99.90
14119;DHT22;7138;49.246;9.100;2023-04-12T09:06:48;9.60;99.90
14119;DHT22;7138;49.246;9.100;2023-04-12T09:09:14;9.80;99.90
14119;DHT22;7138;49.246;9.100;2023-04-12T09:11:40;9.90;99.90
14119;DHT22;7138;49.246;9.100;2023-04-12T09:14:19;9.80;99.90
14119;DHT22;7138;49.246;9.100;2023-04-12T09:16:46;9.90;99.90
14119;DHT22;7138;49.246;9.100;2023-04-12T09:19:12;9.90;99.90
14119;DHT22;7138;49.246;9.100;2023-04-12T09:21:51;9.80;99.90
14119;DHT22;7138;49.246;9.100;2023-04-12T09:24:19;9.60;99.90
14119;DHT22;7138;49.246;9.100;2023-04-12T09:26:48;9.60;99.90
14119;DHT22;7138;49.246;9.100;2023-04-12T09:29:22;9.60;99.90
14119;DHT22;7138;49.246;9.100;2023-04-12T09:31:58;9.60;99.90
14119;DHT22;7138;49.246;9.100;2023-04-12T09:34:25;9.70;99.90
14119;DHT22;7138;49.246;9.100;2023-04-12T09:36:52;9.80;99.90
14119;DHT22;7138;49.246;9.100;2023-04-12T09:39:18;9.80;99.90
14119;DHT22;7138;49.246;9.100;2023-04-12T09:41:44;9.80;99.90
14119;DHT22;7138;49.246;9.100;2023-04-12T09:44:27;9.80;99.90
14119;DHT22;7138;49.246;9.100;2023-04-12T09:46:56;9.80;99.90
14119;DHT22;7138;49.246;9.100;2023-04-12T09:49:36;9.90;99.90
14119;DHT22;7138;49.246;9.100;2023-04-12T09:52:05;10.00;99.90
14119;DHT22;7138;49.246;9.100;2023-04-12T09:54:36;10.10;99.90
14119;DHT22;7138;49.246;9.100;2023-04-12T09:57:05;10.10;99.90
14119;DHT22;7138;49.246;9.100;2023-04-12T09:59:35;10.20;99.90
14119;DHT22;7138;49.246;9.100;2023-04-12T10:02:13;10.30;99.90
14119;DHT22;7138;49.246;9.100;2023-04-12T10:04:43;10.40;99.90
14119;DHT22;7138;49.246;9.100;2023-04-12T10:07:11;10.60;99.90
14119;DHT22;7138;49.246;9.100;2023-04-12T10:09:38;10.60;99.90
14119;DHT22;7138;49.246;9.100;2023-04-12T10:12:06;10.70;99.90
14119;DHT22;7138;49.246;9.100;2023-04-12T10:14:34;10.80;99.90
14119;DHT22;7138;49.246;9.100;2023-04-12T10:17:01;10.80;99.90
14119;DHT22;7138;49.246;9.100;2023-04-12T10:19:30;10.70;99.90
14119;DHT22;7138;49.246;9.100;2023-04-12T10:21:58;10.70;99.90
14119;DHT22;7138;49.246;9.100;2023-04-12T10:24:27;10.70;99.90
14119;DHT22;7138;49.246;9.100;2023-04-12T10:26:54;10.50;99.90
14119;DHT22;7138;49.246;9.100;2023-04-12T10:29:24;10.80;99.90
14119;DHT22;7138;49.246;9.100;2023-04-12T10:31:51;10.80;99.90
14119;DHT22;7138;49.246;9.100;2023-04-12T10:34:22;10.90;99.90
14119;DHT22;7138;49.246;9.100;2023-04-12T10:36:51;10.90;99.90
14119;DHT22;7138;49.246;9.100;2023-04-12T10:39:18;11.00;99.90
14119;DHT22;7138;49.246;9.100;2023-04-12T10:42:22;11.10;99.90
14119;DHT22;7138;49.246;9.100;2023-04-12T10:44:50;11.20;99.90
14119;DHT22;7138;49.246;9.100;2023-04-12T10:50:22;11.20;99.90
14119;DHT22;7138;49.246;9.100;2023-04-12T10:53:19;11.40;99.90
14119;DHT22;7138;49.246;9.100;2023-04-12T10:55:56;11.30;99.90
14119;DHT22;7138;49.246;9.100;2023-04-12T10:58:54;11.30;99.90
14119;DHT22;7138;49.246;9.100;2023-04-12T11:01:20;11.30;99.90
14119;DHT22;7138;49.246;9.100;2023-04-12T11:04:07;11.40;99.90
14119;DHT22;7138;49.246;9.100;2023-04-12T11:06:55;11.30;99.90
14119;DHT22;7138;49.246;9.100;2023-04-12T11:09:25;11.20;99.90
14119;DHT22;7138;49.246;9.100;2023-04-12T11:11:58;11.10;99.90
14119;DHT22;7138;49.246;9.100;2023-04-12T11:14:42;11.20;99.90
14119;DHT22;7138;49.246;9.100;2023-04-12T11:17:23;11.20;99.90
14119;DHT22;7138;49.246;9.100;2023-04-12T11:19:55;11.40;99.90
14119;DHT22;7138;49.246;9.100;2023-04-12T11:22:24;11.50;99.90
14119;DHT22;7138;49.246;9.100;2023-04-12T11:24:53;11.60;99.90
14119;DHT22;7138;49.246;9.100;2023-04-12T11:27:24;11.70;99.90
14119;DHT22;7138;49.246;9.100;2023-04-12T11:29:52;11.80;99.90
14119;DHT22;7138;49.246;9.100;2023-04-12T11:32:21;12.00;99.90
14119;DHT22;7138;49.246;9.100;2023-04-12T11:34:48;11.90;99.90
14119;DHT22;7138;49.246;9.100;2023-04-12T11:37:14;12.00;99.90
14119;DHT22;7138;49.246;9.100;2023-04-12T11:39:44;12.00;99.90
14119;DHT22;7138;49.246;9.100;2023-04-12T11:42:14;11.90;99.90
14119;DHT22;7138;49.246;9.100;2023-04-12T11:44:43;11.90;99.90
14119;DHT22;7138;49.246;9.100;2023-04-12T11:47:14;11.70;99.90
14119;DHT22;7138;49.246;9.100;2023-04-12T11:49:45;11.60;99.90
14119;DHT22;7138;49.246;9.100;2023-04-12T11:52:14;11.70;99.90
14119;DHT22;7138;49.246;9.100;2023-04-12T11:54:44;11.80;99.90
14119;DHT22;7138;49.246;9.100;2023-04-12T11:57:13;11.90;99.90
14119;DHT22;7138;49.246;9.100;2023-04-12T11:59:43;12.00;99.90
14119;DHT22;7138;49.246;9.100;2023-04-12T12:02:11;12.00;99.90
14119;DHT22;7138;49.246;9.100;2023-04-12T12:04:39;11.90;99.90
14119;DHT22;7138;49.246;9.100;2023-04-12T12:07:07;12.00;99.90
14119;DHT22;7138;49.246;9.100;2023-04-12T12:09:34;12.00;99.90
14119;DHT22;7138;49.246;9.100;2023-04-12T12:12:00;12.10;99.90
14119;DHT22;7138;49.246;9.100;2023-04-12T12:14:26;12.20;99.90
14119;DHT22;7138;49.246;9.100;2023-04-12T12:16:56;12.20;99.90
14119;DHT22;7138;49.246;9.100;2023-04-12T12:19:28;12.40;99.90
14119;DHT22;7138;49.246;9.100;2023-04-12T12:22:05;12.40;99.90
14119;DHT22;7138;49.246;9.100;2023-04-12T12:24:34;12.30;99.90
14119;DHT22;7138;49.246;9.100;2023-04-12T12:27:01;12.40;99.90
14119;DHT22;7138;49.246;9.100;2023-04-12T12:29:33;12.30;99.90
14119;DHT22;7138;49.246;9.100;2023-04-12T12:32:08;12.20;99.90
14119;DHT22;7138;49.246;9.100;2023-04-12T12:34:35;12.20;99.90
14119;DHT22;7138;49.246;9.100;2023-04-12T12:37:01;12.20;99.90
14119;DHT22;7138;49.246;9.100;2023-04-12T12:39:27;12.20;99.90
14119;DHT22;7138;49.246;9.100;2023-04-12T12:41:53;12.40;99.90
14119;DHT22;7138;49.246;9.100;2023-04-12T12:44:22;12.50;99.90
14119;DHT22;7138;49.246;9.100;2023-04-12T12:46:49;12.50;99.90
14119;DHT22;7138;49.246;9.100;2023-04-12T12:49:17;12.40;99.90
14119;DHT22;7138;49.246;9.100;2023-04-12T12:51:43;12.40;99.90
14119;DHT22;7138;49.246;9.100;2023-04-12T12:54:09;12.40;99.90
14119;DHT22;7138;49.246;9.100;2023-04-12T12:56:34;12.30;99.90
14119;DHT22;7138;49.246;9.100;2023-04-12T12:59:00;12.30;99.90
14119;DHT22;7138;49.246;9.100;2023-04-12T13:01:26;12.30;99.90
14119;DHT22;7138;49.246;9.100;2023-04-12T13:03:52;12.30;99.90
14119;DHT22;7138;49.246;9.100;2023-04-12T13:06:20;12.20;99.90
14119;DHT22;7138;49.246;9.100;2023-04-12T13:08:46;12.20;99.90
14119;DHT22;7138;49.246;9.100;2023-04-12T13:11:12;12.20;99.90
14119;DHT22;7138;49.246;9.100;2023-04-12T13:13:38;12.10;99.90
14119;DHT22;7138;49.246;9.100;2023-04-12T13:16:04;12.10;99.90
14119;DHT22;7138;49.246;9.100;2023-04-12T13:18:31;12.10;99.90
14119;DHT22;7138;49.246;9.100;2023-04-12T13:20:57;12.10;99.90
14119;DHT22;7138;49.246;9.100;2023-04-12T13:23:24;12.10;99.90
14119;DHT22;7138;49.246;9.100;2023-04-12T13:25:49;12.10;99.90
14119;DHT22;7138;49.246;9.100;2023-04-12T13:28:15;12.20;99.90
14119;DHT22;7138;49.246;9.100;2023-04-12T13:30:41;12.40;99.90
14119;DHT22;7138;49.246;9.100;2023-04-12T13:33:08;12.70;99.90
14119;DHT22;7138;49.246;9.100;2023-04-12T13:35:33;12.70;99.90
14119;DHT22;7138;49.246;9.100;2023-04-12T13:37:59;12.90;99.90
14119;DHT22;7138;49.246;9.100;2023-04-12T13:40:26;13.10;99.90
14119;DHT22;7138;49.246;9.100;2023-04-12T13:42:52;13.10;99.90
14119;DHT22;7138;49.246;9.100;2023-04-12T13:45:18;13.00;99.90
14119;DHT22;7138;49.246;9.100;2023-04-12T13:47:44;12.90;99.90
14119;DHT22;7138;49.246;9.100;2023-04-12T13:50:10;12.90;99.90
14119;DHT22;7138;49.246;9.100;2023-04-12T13:52:36;12.80;99.90
14119;DHT22;7138;49.246;9.100;2023-04-12T13:55:02;12.70;99.90
14119;DHT22;7138;49.246;9.100;2023-04-12T13:57:33;12.60;99.90
14119;DHT22;7138;49.246;9.100;2023-04-12T14:00:00;12.60;99.90
14119;DHT22;7138;49.246;9.100;2023-04-12T14:02:26;12.60;99.90
14119;DHT22;7138;49.246;9.100;2023-04-12T14:04:52;12.60;99.90
14119;DHT22;7138;49.246;9.100;2023-04-12T14:07:19;12.70;99.90
14119;DHT22;7138;49.246;9.100;2023-04-12T14:09:45;12.60;99.90
14119;DHT22;7138;49.246;9.100;2023-04-12T14:12:12;12.60;99.90
14119;DHT22;7138;49.246;9.100;2023-04-12T14:14:40;12.70;99.90
14119;DHT22;7138;49.246;9.100;2023-04-12T14:17:06;12.80;99.90
14119;DHT22;7138;49.246;9.100;2023-04-12T14:19:32;12.80;99.90
14119;DHT22;7138;49.246;9.100;2023-04-12T14:21:58;12.90;99.90
14119;DHT22;7138;49.246;9.100;2023-04-12T14:24:24;13.00;99.90
14119;DHT22;7138;49.246;9.100;2023-04-12T14:26:51;13.00;99.90
14119;DHT22;7138;49.246;9.100;2023-04-12T14:29:17;13.10;99.90
14119;DHT22;7138;49.246;9.100;2023-04-12T14:31:45;13.10;99.90
14119;DHT22;7138;49.246;9.100;2023-04-12T14:34:11;13.10;99.90
14119;DHT22;7138;49.246;9.100;2023-04-12T14:36:37;13.10;99.90
14119;DHT22;7138;49.246;9.100;2023-04-12T14:39:04;13.00;99.90
14119;DHT22;7138;49.246;9.100;2023-04-12T14:41:30;13.00;99.90
14119;DHT22;7138;49.246;9.100;2023-04-12T14:43:57;12.90;99.90
14119;DHT22;7138;49.246;9.100;2023-04-12T14:46:24;12.70;99.90
14119;DHT22;7138;49.246;9.100;2023-04-12T14:48:53;12.50;99.90
14119;DHT22;7138;49.246;9.100;2023-04-12T14:51:19;12.40;99.90
14119;DHT22;7138;49.246;9.100;2023-04-12T14:53:45;12.20;99.90
14119;DHT22;7138;49.246;9.100;2023-04-12T14:56:21;11.90;99.90
14119;DHT22;7138;49.246;9.100;2023-04-12T14:58:49;11.50;99.90
14119;DHT22;7138;49.246;9.100;2023-04-12T15:01:19;11.40;99.90
14119;DHT22;7138;49.246;9.100;2023-04-12T15:03:45;11.20;99.90
14119;DHT22;7138;49.246;9.100;2023-04-12T15:06:13;10.90;99.90
14119;DHT22;7138;49.246;9.100;2023-04-12T15:08:39;10.50;99.90
14119;DHT22;7138;49.246;9.100;2023-04-12T15:11:08;10.10;99.90
14119;DHT22;7138;49.246;9.100;2023-04-12T15:13:35;9.90;99.90
14119;DHT22;7138;49.246;9.100;2023-04-12T15:16:04;9.70;99.90
14119;DHT22;7138;49.246;9.100;2023-04-12T15:18:33;9.70;99.90
14119;DHT22;7138;49.246;9.100;2023-04-12T15:20:59;9.60;99.90
14119;DHT22;7138;49.246;9.100;2023-04-12T15:23:27;9.60;99.90
14119;DHT22;7138;49.246;9.100;2023-04-12T15:25:57;9.50;99.90
14119;DHT22;7138;49.246;9.100;2023-04-12T15:28:27;9.60;99.90
14119;DHT22;7138;49.246;9.100;2023-04-12T15:30:53;9.60;99.90
14119;DHT22;7138;49.246;9.100;2023-04-12T15:33:19;9.60;99.90
14119;DHT22;7138;49.246;9.100;2023-04-12T15:35:45;9.50;99.90
14119;DHT22;7138;49.246;9.100;2023-04-12T15:38:13;9.60;99.90
14119;DHT22;7138;49.246;9.100;2023-04-12T15:40:41;9.60;99.90
14119;DHT22;7138;49.246;9.100;2023-04-12T15:43:07;9.60;99.90
14119;DHT22;7138;49.246;9.100;2023-04-12T15:45:33;9.80;99.90
14119;DHT22;7138;49.246;9.100;2023-04-12T15:47:59;9.90;99.90
14119;DHT22;7138;49.246;9.100;2023-04-12T15:50:25;10.00;99.90
14119;DHT22;7138;49.246;9.100;2023-04-12T15:52:52;10.10;99.90
14119;DHT22;7138;49.246;9.100;2023-04-12T15:55:19;10.00;99.90
14119;DHT22;7138;49.246;9.100;2023-04-12T15:57:47;10.00;99.90
14119;DHT22;7138;49.246;9.100;2023-04-12T16:00:14;10.10;99.90
14119;DHT22;7138;49.246;9.100;2023-04-12T16:02:51;10.40;99.90
14119;DHT22;7138;49.246;9.100;2023-04-12T16:05:23;10.30;99.90